Latest Weather Observations for Archerfield

IDQ60901

Issued at 4:21 pm EST Thursday 28 January 2021 (issued every 10 minutes, with the page automatically refreshed every 10 minutes)

About weather observations | Map of Brisbane area stations | Latest observations for Brisbane area | Other Formats
Station Details ID: 040211 Name: ARCHERFIELD AIRPORT Lat: -27.57 Lon: 153.01 Height: 12.5 m
Data from the previous 72 hours. | See also: Recent months at Archerfield
Date/Time
EST
Temp
°C
App
Temp
°C
Dew
Point
°C
Rel
Hum
%
Delta-T
°C
Wind Press
QNH
hPa
Press
MSL
hPa
Rain since
9am
mm
Dir  Spd
km/h
Gust
km/h
Spd
kts
Gust
kts
28/04:00pm 27.9 24.9 16.8 50 6.9 ESE 28 37 15 20 1011.1 1011.0 0.0
28/03:30pm 28.2 25.3 17.1 51 7.0 ESE 28 39 15 21 1011.1 1011.0 0.0
28/03:00pm 29.0 25.4 17.2 49 7.4 SE 32 43 17 23 1011.4 1011.3 0.0
28/02:30pm 29.8 25.9 15.5 42 8.8 SE 30 41 16 22 1011.3 1011.2 0.0
28/02:00pm 30.2 27.4 17.3 46 8.2 ESE 28 39 15 21 1011.5 1011.4 0.0
28/01:30pm 30.5 27.2 16.9 44 8.6 SE 30 44 16 24 1011.8 1011.7 0.0
28/01:00pm 30.0 27.2 16.4 44 8.5 ESE 26 39 14 21 1012.1 1012.0 0.0
28/12:30pm 29.9 26.5 16.7 45 8.3 SE 30 48 16 26 1012.4 1012.3 0.0
28/12:00pm 29.8 27.2 17.9 48 7.6 ESE 28 41 15 22 1012.5 1012.4 0.0
28/11:30am 29.6 26.5 18.4 51 7.2 ESE 32 41 17 22 1012.9 1012.8 0.0
28/11:00am 28.8 26.2 18.6 54 6.6 ESE 30 41 16 22 1013.1 1013.0 0.0
28/10:30am 29.7 27.0 17.5 48 7.7 ESE 28 41 15 22 1013.1 1013.0 0.0
28/10:00am 28.6 26.3 18.4 54 6.5 ESE 28 41 15 22 1013.1 1013.0 0.0
28/09:30am 28.9 26.8 18.9 54 6.5 E 28 37 15 20 1013.1 1013.0 0.0
28/09:00am 27.3 24.8 18.0 56 5.9 E 28 41 15 22 1013.0 1012.9 1.0
28/08:30am 26.7 26.1 19.8 66 4.5 E 22 32 12 17 1012.8 1012.7 1.0
28/08:00am 25.3 26.3 21.0 77 2.8 SE 17 26 9 14 1012.7 1012.6 1.0
28/07:30am 25.0 27.0 21.5 81 2.3 SE 13 24 7 13 1012.8 1012.7 1.0
28/07:00am 24.2 25.7 20.5 80 2.4 ESE 13 19 7 10 1012.5 1012.4 0.8
28/06:30am 24.0 26.1 20.9 83 2.0 SSE 11 15 6 8 1012.1 1012.0 0.8
28/06:00am 23.7 26.2 21.8 89 1.3 S 11 13 6 7 1011.7 1011.6 0.8
28/05:30am 23.0 25.8 21.5 91 1.0 SSE 9 13 5 7 1011.4 1011.3 0.8
28/05:00am 23.0 25.2 21.1 89 1.2 S 11 13 6 7 1011.1 1011.0 0.8
28/04:30am 23.2 25.9 21.3 89 1.2 SSE 9 13 5 7 1010.9 1010.8 0.6
28/04:25am 23.2 25.4 21.1 88 1.4 SSE 11 15 6 8 1010.8 1010.7 0.6
28/04:07am 23.2 25.4 21.1 88 1.4 SE 11 17 6 9 1010.7 1010.6 0.6
28/04:00am 23.1 25.5 20.8 87 1.5 SE 9 11 5 6 1010.6 1010.5 0.2
28/03:30am 22.9 24.6 20.1 84 1.8 E 11 17 6 9 1010.4 1010.3 0.0
28/03:00am 23.3 26.1 20.8 86 1.6 SE 7 9 4 5 1010.3 1010.2 0.0
28/02:30am 23.3 26.4 21.0 87 1.5 SSE 6 7 3 4 1010.2 1010.1 0.0
28/02:00am 23.6 26.4 20.9 85 1.8 SSE 7 9 4 5 1010.5 1010.4 0.0
28/01:30am 24.2 26.6 20.9 82 2.2 ESE 9 15 5 8 1010.7 1010.6 0.0
28/01:00am 24.2 26.3 20.9 82 2.2 ESE 11 13 6 7 1010.7 1010.6 0.0
28/12:30am 24.6 26.9 21.3 82 2.2 ESE 11 17 6 9 1010.8 1010.7 0.0
28/12:00am 24.5 26.8 21.4 83 2.0 ESE 11 15 6 8 1011.0 1010.9 0.0
 
Date/Time
EST
Temp
°C
App
Temp
°C
Dew
Point
°C
Rel
Hum
%
Delta-T
°C
Wind Press
QNH
hPa
Press
MSL
hPa
Rain since
9am
mm
Dir  Spd
km/h
Gust
km/h
Spd
kts
Gust
kts
27/11:30pm 24.8 27.1 20.7 78 2.7 E 9 15 5 8 1011.1 1011.0 0.0
27/11:00pm 25.2 27.4 21.1 78 2.7 E 11 15 6 8 1011.2 1011.1 0.0
27/10:30pm 25.1 27.5 20.8 77 2.8 ESE 9 11 5 6 1011.2 1011.1 0.0
27/10:00pm 25.1 26.6 20.6 76 2.9 E 13 17 7 9 1011.1 1011.0 0.0
27/09:30pm 25.3 26.8 20.5 75 3.1 ENE 13 19 7 10 1011.1 1011.0 0.0
27/09:00pm 25.1 27.0 20.6 76 2.9 ENE 11 17 6 9 1011.2 1011.1 0.0
27/08:30pm 25.5 26.6 20.5 74 3.3 NE 15 20 8 11 1011.1 1011.0 0.0
27/08:00pm 25.8 27.2 21.0 75 3.2 NE 15 20 8 11 1010.6 1010.5 0.0
27/07:30pm 25.6 26.5 20.8 75 3.2 ENE 17 20 9 11 1010.1 1010.0 0.0
27/07:00pm 26.2 26.7 20.1 69 4.0 NE 17 22 9 12 1009.8 1009.7 0.0
27/06:30pm 26.7 26.7 19.8 66 4.5 NE 19 24 10 13 1009.6 1009.5 0.0
27/06:00pm 27.7 28.0 20.5 65 4.7 NE 19 24 10 13 1009.3 1009.2 0.0
27/05:30pm 28.5 28.1 20.2 60 5.5 NE 22 28 12 15 1008.9 1008.8 0.0
27/05:00pm 29.2 28.9 20.4 59 5.8 NE 22 30 12 16 1008.5 1008.4 0.0
27/04:30pm 29.9 29.5 20.2 56 6.4 NE 22 30 12 16 1008.1 1008.0 0.0
27/04:00pm 30.0 29.9 20.0 55 6.6 NE 20 28 11 15 1007.9 1007.8 0.0
27/03:30pm 30.2 29.9 20.4 55 6.5 NE 22 32 12 17 1007.8 1007.7 0.0
27/03:00pm 30.7 30.3 20.9 56 6.6 ENE 24 33 13 18 1007.9 1007.8 0.0
27/02:30pm 31.2 31.0 20.5 53 7.1 ENE 22 30 12 16 1008.1 1008.0 0.0
27/02:00pm 31.0 30.6 20.9 55 6.8 NE 24 33 13 18 1008.2 1008.1 0.0
27/01:30pm 31.7 32.4 21.5 54 6.9 NE 20 32 11 17 1008.2 1008.1 0.0
27/01:00pm 31.0 31.4 20.9 55 6.8 NE 20 26 11 14 1008.3 1008.2 0.0
27/12:30pm 30.2 31.0 19.9 54 6.8 NNE 15 26 8 14 1008.4 1008.3 0.0
27/12:00pm 30.8 32.6 20.4 54 6.9 NE 11 19 6 10 1008.7 1008.6 0.0
27/11:30am 30.7 32.2 20.6 54 6.7 NE 13 24 7 13 1009.0 1008.9 0.0
27/11:00am 29.3 30.7 19.6 56 6.3 N 11 19 6 10 1009.1 1009.0 0.0
27/10:30am 29.3 31.9 19.3 55 6.5 SSE 4 9 2 5 1009.3 1009.2 0.0
27/10:00am 29.1 31.9 19.7 57 6.1 WSW 4 9 2 5 1009.5 1009.4 0.0
27/09:30am 28.2 30.3 19.4 59 5.7 WSW 7 11 4 6 1009.6 1009.5 0.0
27/09:00am 27.4 29.6 19.2 61 5.3 S 6 11 3 6 1009.8 1009.7 0.0
27/08:30am 27.2 30.2 20.8 68 4.2 SW 6 13 3 7 1009.8 1009.7 0.0
27/08:00am 26.3 29.4 21.1 73 3.4 SW 6 13 3 7 1009.5 1009.4 0.0
27/07:30am 24.8 28.3 20.3 76 2.9 WSW 2 7 1 4 1009.4 1009.3 0.0
27/07:00am 23.9 26.7 20.4 81 2.3 WSW 6 9 3 5 1009.2 1009.1 0.0
27/06:30am 22.9 25.5 20.4 86 1.6 W 7 9 4 5 1008.9 1008.8 0.0
27/06:00am 21.7 24.9 19.8 89 1.2 SW 2 6 1 3 1008.6 1008.5 0.0
27/05:30am 20.8 22.9 19.3 91 0.9 SW 7 9 4 5 1008.2 1008.1 0.0
27/05:00am 20.4 23.7 19.1 92 0.8 CALM 0 0 0 0 1008.1 1008.0 0.0
27/04:30am 20.9 23.0 19.0 89 1.2 SSW 6 7 3 4 1007.7 1007.6 0.0
27/04:00am 21.6 25.1 19.5 88 1.3 CALM 0 0 0 0 1007.6 1007.5 0.0
27/03:30am 20.8 23.5 18.6 87 1.4 S 2 6 1 3 1007.5 1007.4 0.0
27/03:00am 21.9 23.7 19.6 87 1.5 S 9 13 5 7 1007.7 1007.6 0.0
27/02:30am 22.2 23.7 19.7 86 1.6 S 11 13 6 7 1007.7 1007.6 0.0
27/02:00am 22.4 24.4 19.9 86 1.6 S 9 11 5 6 1007.9 1007.8 0.0
27/01:30am 22.5 24.7 19.7 84 1.8 SSW 7 9 4 5 1008.0 1007.9 0.0
27/01:00am 22.7 25.2 19.9 84 1.8 SSW 6 7 3 4 1008.1 1008.0 0.0
27/12:30am 23.5 26.7 20.4 83 2.0 W 4 6 2 3 1008.2 1008.1 0.0
27/12:00am 23.1 25.5 20.1 83 1.9 N 7 9 4 5 1008.4 1008.3 0.0
 
Date/Time
EST
Temp
°C
App
Temp
°C
Dew
Point
°C
Rel
Hum
%
Delta-T
°C
Wind Press
QNH
hPa
Press
MSL
hPa
Rain since
9am
mm
Dir  Spd
km/h
Gust
km/h
Spd
kts
Gust
kts
26/11:30pm 23.8 26.6 20.5 82 2.1 NNE 6 9 3 5 1008.6 1008.5 0.0
26/11:00pm 24.0 26.0 20.7 82 2.2 NNE 11 15 6 8 1008.6 1008.5 0.0
26/10:30pm 23.7 25.8 20.2 81 2.3 NNE 9 11 5 6 1008.9 1008.8 0.0
26/10:00pm 23.9 25.6 20.2 80 2.4 NE 11 15 6 8 1009.2 1009.1 0.0
26/09:30pm 24.1 26.0 20.6 81 2.3 NE 11 13 6 7 1009.1 1009.0 0.0
26/09:00pm 23.8 26.0 20.3 81 2.3 NE 9 13 5 7 1008.9 1008.8 0.0
26/08:30pm 24.5 26.3 20.4 78 2.7 NE 11 13 6 7 1008.6 1008.5 0.0
26/08:00pm 24.4 25.5 19.7 75 3.0 ENE 13 15 7 8 1008.1 1008.0 0.0
26/07:30pm 24.9 25.3 19.9 74 3.2 ENE 17 20 9 11 1007.7 1007.6 0.0
26/07:00pm 25.2 24.8 18.9 68 4.0 NE 19 24 10 13 1007.2 1007.1 0.0
26/06:30pm 25.8 24.4 18.0 62 4.9 NE 22 30 12 16 1006.6 1006.5 0.0
26/06:00pm 27.0 25.9 17.8 57 5.8 NE 20 32 11 17 1006.2 1006.1 0.0
26/05:30pm 28.1 26.4 17.3 52 6.8 NE 22 28 12 15 1006.0 1005.9 0.0
26/05:00pm 28.9 27.4 16.8 48 7.6 NE 20 30 11 16 1005.6 1005.5 0.0
26/04:30pm 29.5 28.2 16.7 46 8.0 NE 19 28 10 15 1005.5 1005.4 0.0
26/04:00pm 29.5 28.0 16.3 45 8.2 NE 19 24 10 13 1005.6 1005.5 0.0
26/03:30pm 30.6 30.1 17.7 46 8.2 NE 17 22 9 12 1005.7 1005.6 0.0
26/03:00pm 31.0 30.6 18.0 45 8.4 NE 17 28 9 15 1005.9 1005.8 0.0
26/02:30pm 30.8 30.4 17.1 43 8.7 NE 15 24 8 13 1006.2 1006.1 0.0
26/02:00pm 28.9 27.7 16.1 46 7.9 NE 17 30 9 16 1006.3 1006.2 0.0
26/01:30pm 30.4 29.3 17.8 46 8.0 NNE 20 30 11 16 1006.6 1006.5 0.0
26/01:00pm 30.0 28.9 16.4 44 8.5 NNE 17 28 9 15 1006.9 1006.8 0.0
26/12:30pm 29.1 27.5 14.9 42 8.6 NNE 17 28 9 15 1007.1 1007.0 0.0
26/12:00pm 28.9 28.6 16.5 47 7.7 N 13 26 7 14 1007.5 1007.4 0.0
26/11:30am 28.7 29.5 16.3 47 7.7 NE 7 17 4 9 1007.9 1007.8 0.0
26/11:00am 29.1 29.8 17.9 50 7.1 ENE 11 15 6 8 1008.2 1008.1 0.0
26/10:30am 28.4 29.5 17.9 53 6.7 ENE 9 15 5 8 1008.5 1008.4 0.0
26/10:00am 28.2 28.4 17.7 53 6.7 NE 13 20 7 11 1008.8 1008.7 0.0
26/09:30am 27.3 29.0 17.2 54 6.3 ENE 4 9 2 5 1009.2 1009.1 0.0
26/09:00am 26.5 28.8 17.6 58 5.6 ENE 2 9 1 5 1009.5 1009.4 0.0
26/08:30am 25.5 27.3 18.2 64 4.6 W 6 9 3 5 1009.6 1009.5 0.0
26/08:00am 24.7 27.0 17.7 65 4.4 SE 2 6 1 3 1009.6 1009.5 0.0
26/07:30am 22.7 24.2 18.0 75 2.9 SSW 7 11 4 6 1009.8 1009.7 0.0
26/07:00am 21.2 22.2 17.8 81 2.1 SSW 9 11 5 6 1009.7 1009.6 0.0
26/06:30am 20.0 21.2 17.4 85 1.6 SSW 7 9 4 5 1009.6 1009.5 0.0
26/06:00am 18.8 20.1 17.1 90 1.0 SW 6 9 3 5 1009.4 1009.3 0.0
26/05:30am 18.5 20.9 17.0 91 0.9 CALM 0 0 0 0 1009.1 1009.0 0.0
26/05:00am 17.7 19.7 15.9 89 1.1 CALM 0 6 0 3 1008.8 1008.7 0.0
26/04:30am 18.2 19.3 16.5 90 1.0 S 6 9 3 5 1008.7 1008.6 0.0
26/04:00am 17.7 19.7 15.9 89 1.1 CALM 0 0 0 0 1008.7 1008.6 0.0
26/03:30am 18.2 19.2 16.4 89 1.1 SW 6 7 3 4 1008.6 1008.5 0.0
26/03:00am 18.1 19.7 15.9 87 1.3 S 2 7 1 4 1008.5 1008.4 0.0
26/02:30am 19.0 19.7 17.1 89 1.2 SSW 9 9 5 5 1008.8 1008.7 0.0
26/02:00am 18.8 21.2 17.1 90 1.0 CALM 0 0 0 0 1008.7 1008.6 0.0
26/01:30am 19.2 21.4 16.6 85 1.6 CALM 0 0 0 0 1009.2 1009.1 0.0
26/01:00am 20.1 22.8 17.7 86 1.5 CALM 0 0 0 0 1009.3 1009.2 0.0
26/12:30am 19.7 22.1 16.9 84 1.7 CALM 0 0 0 0 1009.7 1009.6 0.0
26/12:00am 20.4 21.6 17.4 83 1.8 S 7 9 4 5 1010.1 1010.0 0.0
 
Date/Time
EST
Temp
°C
App
Temp
°C
Dew
Point
°C
Rel
Hum
%
Delta-T
°C
Wind Press
QNH
hPa
Press
MSL
hPa
Rain since
9am
mm
Dir  Spd
km/h
Gust
km/h
Spd
kts
Gust
kts
25/11:30pm 20.9 21.8 17.5 81 2.1 SSW 9 9 5 5 1010.2 1010.1 0.0
25/11:00pm 22.6 23.7 17.1 71 3.4 ENE 7 7 4 4 1010.1 1010.0 0.0
25/10:30pm 22.3 23.4 17.0 72 3.2 ENE 7 9 4 5 1010.3 1010.2 0.0
25/10:00pm 22.3 23.4 17.2 73 3.1 ENE 7 9 4 5 1010.4 1010.3 0.0
25/09:30pm 22.5 23.3 17.4 73 3.1 ENE 9 11 5 6 1010.4 1010.3 0.0
25/09:00pm 22.0 22.6 16.9 73 3.1 NE 9 13 5 7 1010.2 1010.1 0.0
25/08:30pm 22.7 22.7 17.2 71 3.4 NNE 13 17 7 9 1010.1 1010.0 0.0
25/08:00pm 23.6 23.4 17.6 69 3.7 NE 15 19 8 10 1009.9 1009.8 0.0
25/07:30pm 24.1 23.9 17.6 67 4.1 NE 15 19 8 10 1009.9 1009.8 0.0
25/07:00pm 24.9 23.7 17.4 63 4.7 NE 20 26 11 14 1009.8 1009.7 0.0
25/06:30pm 25.3 23.8 16.7 59 5.3 NE 20 28 11 15 1009.6 1009.5 0.0
25/06:00pm 25.9 23.8 16.2 55 6.0 NE 22 28 12 15 1009.2 1009.1 0.0
25/05:30pm 26.2 24.4 17.0 57 5.7 NE 22 32 12 17 1009.0 1008.9 0.0
25/05:00pm 26.4 24.3 17.2 57 5.8 NE 24 30 13 16 1008.8 1008.7 0.0
25/04:30pm 26.8 25.1 17.3 56 5.9 NE 22 32 12 17 1008.7 1008.6 0.0

Latest Capital City Observations: Canberra | Sydney | Melbourne | Brisbane | Adelaide | Perth | Hobart | Darwin

Other formats

Comma delimited format used in spreadsheet applications
http://www.bom.gov.au/fwo/IDQ60901/IDQ60901.94575.axf

JavaScript Object Notation format (JSON) in row-major order
http://www.bom.gov.au/fwo/IDQ60901/IDQ60901.94575.json

Data quality

Most of these data are generated automatically and are frequently updated. Quality checks on data are not normally performed. It is possible for incorrect values to appear. Refer to information at About Latest Weather Observations and please check the disclaimer before using these data.